Emmanuel Tomasos — C6SS7 — position and weather

sailwx.info

Track history (hours):
 
Tides and Currents Weather Stations Pressure Air Temp Water Temp Dewpoint Dewpoint Depression Visibility Wind Speed Wind Dir Waves Ship Positions

Emmanuel Tomasos

Last reported at 2015-Jan-23 23:29 UTC. Time now 2015-Jan-26 20:33 UTC.
Position N 60°06' E 027°31'.

Length 182 m; draft 7.8 m.

Type: Tanker. MMSI: 311459000.

Date/timePositionNaut miles runAvg speedWind from/ knotsBaromVisibWave heightAir tempDewpointWater temp
2015-Jan-23 23:29N 60°06' E 027°31'1313.8
2015-Jan-23 22:33N 59°59' E 027°09'1313.4
2015-Jan-23 21:33N 59°59' E 026°43'1413.9
2015-Jan-23 20:33N 59°56' E 026°16'4514.0
2015-Jan-23 17:20N 59°45' E 024°49'1113.9
2015-Jan-23 16:34N 59°43' E 024°28'9 9.2
2015-Jan-23 15:34N 59°34' E 024°22'7 6.7
2015-Jan-23 14:29N 59°29' E 024°32'0 0.0
2015-Jan-23 13:29N 59°29' E 024°32'0 0.0
2015-Jan-23 12:29N 59°29' E 024°32'0 0.0
2015-Jan-23 11:32N 59°29' E 024°32'0 0.0
2015-Jan-23 10:32N 59°29' E 024°32'0 0.0
2015-Jan-23 09:23N 59°29' E 024°32'0 0.1
2015-Jan-23 08:33N 59°29' E 024°32'2411.1
2015-Jan-23 06:25N 59°30' E 023°46'1314.2
2015-Jan-23 05:30N 59°29' E 023°20'34313.2
2015-Jan-22 03:26N 55°37' E 015°30'1213.8
2015-Jan-22 02:32N 55°32' E 015°09'1413.9
2015-Jan-22 01:33N 55°26' E 014°47'1413.7
2015-Jan-22 00:33N 55°17' E 014°30'1312.9
2015-Jan-21 23:34N 55°10' E 014°11'1014.0
2015-Jan-21 22:50N 55°10' E 013°53'114.1
2015-Jan-21 22:46N 55°11' E 013°51'313.9
2015-Jan-21 22:33N 55°11' E 013°46'1313.3
2015-Jan-21 21:33N 55°12' E 013°23'1313.2
2015-Jan-21 20:33N 55°14' E 012°60'1313.0
2015-Jan-21 19:34N 55°18' E 012°38'1413.7
2015-Jan-21 18:33N 55°32' E 012°42'9 9.0
2015-Jan-21 17:33N 55°41' E 012°41'1313.1
2015-Jan-21 16:34N 55°54' E 012°39'1212.0
2015-Jan-21 15:34N 56°05' E 012°35'1010.2
2015-Jan-21 14:34N 56°11' E 012°20'1313.4
2015-Jan-21 13:33N 56°20' E 012°02'1414.0
2015-Jan-21 12:33N 56°34' E 011°57'1413.9
2015-Jan-21 11:33N 56°48' E 011°50'1413.8
2015-Jan-21 10:33N 57°00' E 011°41'1413.6
2015-Jan-21 09:33N 57°13' E 011°33'1413.7
2015-Jan-21 08:33N 57°26' E 011°24'1413.4
2015-Jan-21 07:32N 57°36' E 011°07'1313.5
2015-Jan-21 06:33N 57°45' E 010°49'1212.3
2015-Jan-21 05:33N 57°49' E 010°27'19713.1
2015-Jan-20 14:32N 55°35' E 006°03'8613.9
2015-Jan-20 08:21N 54°18' E 004°59'1214.1
2015-Jan-20 07:29N 54°07' E 004°50'13110.9
2015-Jan-19 19:25N 52°03' E 003°36'1113.5
2015-Jan-19 18:34N 52°02' E 003°55'1010.1
2015-Jan-19 17:33N 51°57' E 004°09'3 3.0
2015-Jan-19 16:29N 51°55' E 004°13'0 0.0
2015-Jan-19 15:32N 51°55' E 004°13'0 0.0
2015-Jan-19 14:32N 51°55' E 004°13'0 0.0
2015-Jan-19 13:11N 51°55' E 004°13'0 0.0
2015-Jan-19 12:11N 51°55' E 004°13'0 0.0
2015-Jan-19 11:23N 51°55' E 004°13'0 0.0
2015-Jan-19 09:29N 51°55' E 004°13'0 0.0
2015-Jan-19 08:29N 51°55' E 004°13'0 0.0
2015-Jan-19 07:23N 51°55' E 004°13'0 0.0
2015-Jan-19 06:23N 51°55' E 004°13'0 0.0
2015-Jan-19 05:11N 51°55' E 004°13'0 0.0
2015-Jan-19 04:29N 51°55' E 004°13'0 0.0
2015-Jan-19 03:29N 51°55' E 004°13'0 0.0
2015-Jan-19 02:17N 51°55' E 004°13'0 0.0
2015-Jan-19 01:29N 51°55' E 004°13'0 0.0
2015-Jan-19 00:29N 51°55' E 004°13'0 0.0
2015-Jan-18 23:26N 51°55' E 004°13'0 0.0
2015-Jan-18 22:29N 51°55' E 004°13'0 0.0
2015-Jan-18 21:23N 51°55' E 004°13'0 0.0
2015-Jan-18 20:17N 51°55' E 004°13'0 0.0
2015-Jan-18 19:29N 51°55' E 004°13'0 0.0
2015-Jan-18 18:26N 51°55' E 004°13'0 0.0
2015-Jan-18 17:26N 51°55' E 004°13'0 0.0
2015-Jan-18 16:29N 51°55' E 004°13'0 0.0
2015-Jan-18 15:29N 51°55' E 004°13'0 0.0
2015-Jan-18 14:32N 51°55' E 004°13'0 0.0
2015-Jan-18 13:29N 51°55' E 004°13'0 0.0
2015-Jan-18 12:23N 51°55' E 004°13'0 0.0
2015-Jan-18 11:32N 51°55' E 004°13'0 0.0
2015-Jan-18 10:29N 51°55' E 004°13'0 0.0
2015-Jan-18 09:32N 51°55' E 004°13'0 0.0
2015-Jan-18 08:26N 51°55' E 004°13'0 0.0
2015-Jan-18 07:32N 51°55' E 004°13'0 0.0
2015-Jan-18 06:23N 51°55' E 004°13'0 0.0
2015-Jan-18 03:23N 51°55' E 004°13'3 3.8
2015-Jan-18 02:33N 51°57' E 004°09'1211.7
2015-Jan-18 01:33N 52°00' E 003°51'9 9.1
2015-Jan-18 00:33N 52°07' E 003°40'6 5.6
2015-Jan-17 23:31N 52°11' E 003°34'0 0.0
2015-Jan-17 22:31N 52°11' E 003°34'0 0.0
2015-Jan-17 21:31N 52°11' E 003°34'0 0.0
2015-Jan-17 09:33N 52°11' E 003°34'323 8.9
2015-Jan-15 21:07N 57°02' E 007°35'5 8.5
2015-Jan-15 20:32N 57°06' E 007°42'8 8.4
2015-Jan-15 19:32N 57°11' E 007°53'31 9.1
2015-Jan-15 16:09N 57°30' E 008°39'68 8.9
2015-Jan-15 08:32N 57°52' E 010°38'1211.9
2015-Jan-15 07:33N 57°44' E 010°55'1313.1
2015-Jan-15 06:34N 57°35' E 011°13'1312.9
2015-Jan-15 05:34N 57°25' E 011°28'1312.7
2015-Jan-15 04:33N 57°13' E 011°36'1313.0
2015-Jan-15 03:34N 57°01' E 011°45'1312.9
2015-Jan-15 02:33N 56°49' E 011°52'1111.2
2015-Jan-15 01:34N 56°39' E 011°41'12211.7
2015-Jan-14 15:08N 54°40' E 010°59'812.9
2015-Jan-14 14:33N 54°36' E 011°11'1312.6
2015-Jan-14 13:33N 54°31' E 011°30'1312.9
2015-Jan-14 12:33N 54°27' E 011°52'1211.7
2015-Jan-14 11:33N 54°28' E 012°12'1111.2
2015-Jan-14 10:33N 54°38' E 012°21'1212.4
2015-Jan-14 09:33N 54°46' E 012°38'1313.0
2015-Jan-14 08:33N 54°51' E 012°59'1613.5
2015-Jan-14 07:21N 54°56' E 013°26'1013.2
2015-Jan-14 06:33N 54°60' E 013°43'1313.0
2015-Jan-14 05:33N 55°04' E 014°04'1312.9
2015-Jan-14 04:33N 55°14' E 014°19'1312.7
2015-Jan-14 03:33N 55°24' E 014°33'1212.3
2015-Jan-14 02:33N 55°31' E 014°51'1312.3
2015-Jan-14 01:32N 55°37' E 015°10'1212.4
2015-Jan-14 00:33N 55°40' E 015°31'  
Track history (hours):
 
Tides and Currents Weather Stations Pressure Air Temp Water Temp Dewpoint Dewpoint Depression Visibility Wind Speed Wind Dir Waves Ship Positions

Emmanuel Tomasos

Last reported at 2015-Jan-23 23:29 UTC. Time now 2015-Jan-26 20:33 UTC.
Position N 60°06' E 027°31'.

Length 182 m; draft 7.8 m.

Type: Tanker. MMSI: 311459000.

Date/timePositionNaut miles runAvg speedWind from/ knotsBaromVisibWave heightAir tempDewpointWater temp
2015-Jan-23 23:29N 60°06' E 027°31'1313.8
2015-Jan-23 22:33N 59°59' E 027°09'1313.4
2015-Jan-23 21:33N 59°59' E 026°43'1413.9
2015-Jan-23 20:33N 59°56' E 026°16'4514.0
2015-Jan-23 17:20N 59°45' E 024°49'1113.9
2015-Jan-23 16:34N 59°43' E 024°28'9 9.2
2015-Jan-23 15:34N 59°34' E 024°22'7 6.7
2015-Jan-23 14:29N 59°29' E 024°32'0 0.0
2015-Jan-23 13:29N 59°29' E 024°32'0 0.0
2015-Jan-23 12:29N 59°29' E 024°32'0 0.0
2015-Jan-23 11:32N 59°29' E 024°32'0 0.0
2015-Jan-23 10:32N 59°29' E 024°32'0 0.0
2015-Jan-23 09:23N 59°29' E 024°32'0 0.1
2015-Jan-23 08:33N 59°29' E 024°32'2411.1
2015-Jan-23 06:25N 59°30' E 023°46'1314.2
2015-Jan-23 05:30N 59°29' E 023°20'34313.2
2015-Jan-22 03:26N 55°37' E 015°30'1213.8
2015-Jan-22 02:32N 55°32' E 015°09'1413.9
2015-Jan-22 01:33N 55°26' E 014°47'1413.7
2015-Jan-22 00:33N 55°17' E 014°30'1312.9
2015-Jan-21 23:34N 55°10' E 014°11'1014.0
2015-Jan-21 22:50N 55°10' E 013°53'114.1
2015-Jan-21 22:46N 55°11' E 013°51'313.9
2015-Jan-21 22:33N 55°11' E 013°46'1313.3
2015-Jan-21 21:33N 55°12' E 013°23'1313.2
2015-Jan-21 20:33N 55°14' E 012°60'1313.0
2015-Jan-21 19:34N 55°18' E 012°38'1413.7
2015-Jan-21 18:33N 55°32' E 012°42'9 9.0
2015-Jan-21 17:33N 55°41' E 012°41'1313.1
2015-Jan-21 16:34N 55°54' E 012°39'1212.0
2015-Jan-21 15:34N 56°05' E 012°35'1010.2
2015-Jan-21 14:34N 56°11' E 012°20'1313.4
2015-Jan-21 13:33N 56°20' E 012°02'1414.0
2015-Jan-21 12:33N 56°34' E 011°57'1413.9
2015-Jan-21 11:33N 56°48' E 011°50'1413.8
2015-Jan-21 10:33N 57°00' E 011°41'1413.6
2015-Jan-21 09:33N 57°13' E 011°33'1413.7
2015-Jan-21 08:33N 57°26' E 011°24'1413.4
2015-Jan-21 07:32N 57°36' E 011°07'1313.5
2015-Jan-21 06:33N 57°45' E 010°49'1212.3
2015-Jan-21 05:33N 57°49' E 010°27'19713.1
2015-Jan-20 14:32N 55°35' E 006°03'8613.9
2015-Jan-20 08:21N 54°18' E 004°59'1214.1
2015-Jan-20 07:29N 54°07' E 004°50'13110.9
2015-Jan-19 19:25N 52°03' E 003°36'1113.5
2015-Jan-19 18:34N 52°02' E 003°55'1010.1
2015-Jan-19 17:33N 51°57' E 004°09'3 3.0
2015-Jan-19 16:29N 51°55' E 004°13'0 0.0
2015-Jan-19 15:32N 51°55' E 004°13'0 0.0
2015-Jan-19 14:32N 51°55' E 004°13'0 0.0
2015-Jan-19 13:11N 51°55' E 004°13'0 0.0
2015-Jan-19 12:11N 51°55' E 004°13'0 0.0
2015-Jan-19 11:23N 51°55' E 004°13'0 0.0
2015-Jan-19 09:29N 51°55' E 004°13'0 0.0
2015-Jan-19 08:29N 51°55' E 004°13'0 0.0
2015-Jan-19 07:23N 51°55' E 004°13'0 0.0
2015-Jan-19 06:23N 51°55' E 004°13'0 0.0
2015-Jan-19 05:11N 51°55' E 004°13'0 0.0
2015-Jan-19 04:29N 51°55' E 004°13'0 0.0
2015-Jan-19 03:29N 51°55' E 004°13'0 0.0
2015-Jan-19 02:17N 51°55' E 004°13'0 0.0
2015-Jan-19 01:29N 51°55' E 004°13'0 0.0
2015-Jan-19 00:29N 51°55' E 004°13'0 0.0
2015-Jan-18 23:26N 51°55' E 004°13'0 0.0
2015-Jan-18 22:29N 51°55' E 004°13'0 0.0
2015-Jan-18 21:23N 51°55' E 004°13'0 0.0
2015-Jan-18 20:17N 51°55' E 004°13'0 0.0
2015-Jan-18 19:29N 51°55' E 004°13'0 0.0
2015-Jan-18 18:26N 51°55' E 004°13'0 0.0
2015-Jan-18 17:26N 51°55' E 004°13'0 0.0
2015-Jan-18 16:29N 51°55' E 004°13'0 0.0
2015-Jan-18 15:29N 51°55' E 004°13'0 0.0
2015-Jan-18 14:32N 51°55' E 004°13'0 0.0
2015-Jan-18 13:29N 51°55' E 004°13'0 0.0
2015-Jan-18 12:23N 51°55' E 004°13'0 0.0
2015-Jan-18 11:32N 51°55' E 004°13'0 0.0
2015-Jan-18 10:29N 51°55' E 004°13'0 0.0
2015-Jan-18 09:32N 51°55' E 004°13'0 0.0
2015-Jan-18 08:26N 51°55' E 004°13'0 0.0
2015-Jan-18 07:32N 51°55' E 004°13'0 0.0
2015-Jan-18 06:23N 51°55' E 004°13'0 0.0
2015-Jan-18 03:23N 51°55' E 004°13'3 3.8
2015-Jan-18 02:33N 51°57' E 004°09'1211.7
2015-Jan-18 01:33N 52°00' E 003°51'9 9.1
2015-Jan-18 00:33N 52°07' E 003°40'6 5.6
2015-Jan-17 23:31N 52°11' E 003°34'0 0.0
2015-Jan-17 22:31N 52°11' E 003°34'0 0.0
2015-Jan-17 21:31N 52°11' E 003°34'0 0.0
2015-Jan-17 09:33N 52°11' E 003°34'323 8.9
2015-Jan-15 21:07N 57°02' E 007°35'5 8.5
2015-Jan-15 20:32N 57°06' E 007°42'8 8.4
2015-Jan-15 19:32N 57°11' E 007°53'31 9.1
2015-Jan-15 16:09N 57°30' E 008°39'68 8.9
2015-Jan-15 08:32N 57°52' E 010°38'1211.9
2015-Jan-15 07:33N 57°44' E 010°55'1313.1
2015-Jan-15 06:34N 57°35' E 011°13'1312.9
2015-Jan-15 05:34N 57°25' E 011°28'1312.7
2015-Jan-15 04:33N 57°13' E 011°36'1313.0
2015-Jan-15 03:34N 57°01' E 011°45'1312.9
2015-Jan-15 02:33N 56°49' E 011°52'1111.2
2015-Jan-15 01:34N 56°39' E 011°41'12211.7
2015-Jan-14 15:08N 54°40' E 010°59'812.9
2015-Jan-14 14:33N 54°36' E 011°11'1312.6
2015-Jan-14 13:33N 54°31' E 011°30'1312.9
2015-Jan-14 12:33N 54°27' E 011°52'1211.7
2015-Jan-14 11:33N 54°28' E 012°12'1111.2
2015-Jan-14 10:33N 54°38' E 012°21'1212.4
2015-Jan-14 09:33N 54°46' E 012°38'1313.0
2015-Jan-14 08:33N 54°51' E 012°59'1613.5
2015-Jan-14 07:21N 54°56' E 013°26'1013.2
2015-Jan-14 06:33N 54°60' E 013°43'1313.0
2015-Jan-14 05:33N 55°04' E 014°04'1312.9
2015-Jan-14 04:33N 55°14' E 014°19'1312.7
2015-Jan-14 03:33N 55°24' E 014°33'1212.3
2015-Jan-14 02:33N 55°31' E 014°51'1312.3
2015-Jan-14 01:32N 55°37' E 015°10'1212.4
2015-Jan-14 00:33N 55°40' E 015°31'  

Dump ship's entire track history